Mendota Heights, Minnesota
Current Conditions -  °F | °C
As of 3:53 AM on Friday 31 Oct 2014 (Local Time) from KMSP Reporting Station
Few Clouds Few Clouds  
Wind Chill: 18°   Ceiling: Unl
Heat Index: 29°   Visibility: 10mi
Dew Point: 16°   Wind: 15mph
Humidity: 58%   Direction: 350°N
Pressure: 30.45"   Gusts: 22mph
Location:  44.8725°N, 93.1463°W
Report Text: KMSP 310853Z 35013G19KT 10SM FEW035 M02/M09 A3045 RMK AO2 SLP321 T10171089 51022
Loading
Personal Weather Stations






























Interactive Weather Map
Tropical Storm Tracking
New forecast layout! Learn more

10-Day Weather Forecast

Advertisements
Track Severe Weather on mobile